createdAt,value
2019-05-17T00:00:03.323Z,9.61
2019-05-17T00:01:03.329Z,9.61
2019-05-17T00:02:03.308Z,9.67
2019-05-17T00:03:03.286Z,9.57
2019-05-17T00:04:03.286Z,9.67
2019-05-17T00:05:03.275Z,9.64
2019-05-17T00:06:03.259Z,9.67
2019-05-17T00:07:03.259Z,9.64
2019-05-17T00:08:03.237Z,9.61
2019-05-17T00:09:03.228Z,9.61
2019-05-17T00:10:03.220Z,9.53
2019-05-17T00:11:03.202Z,9.57
2019-05-17T00:12:03.209Z,9.60
2019-05-17T00:13:03.182Z,9.53
2019-05-17T00:14:03.172Z,9.56
2019-05-17T00:15:03.164Z,9.61
2019-05-17T00:16:03.146Z,9.57
2019-05-17T00:17:03.198Z,9.52
2019-05-17T00:18:03.125Z,9.53
2019-05-17T00:19:03.116Z,9.46
2019-05-17T00:20:03.107Z,9.57
2019-05-17T00:21:03.088Z,9.43
2019-05-17T00:22:03.103Z,9.40
2019-05-17T00:23:03.071Z,9.45
2019-05-17T00:24:03.053Z,9.50
2019-05-17T00:25:03.046Z,9.56
2019-05-17T00:26:03.034Z,9.45
2019-05-17T00:27:03.027Z,9.48
2019-05-17T00:28:03.089Z,9.57
2019-05-17T00:29:03.000Z,9.40
2019-05-17T00:30:02.993Z,9.43
2019-05-17T00:31:02.979Z,9.53
2019-05-17T00:32:02.983Z,9.50
2019-05-17T00:33:02.957Z,9.48
2019-05-17T00:34:02.942Z,9.49
2019-05-17T00:35:02.932Z,9.53
2019-05-17T00:36:02.918Z,9.43
2019-05-17T00:37:03.026Z,9.45
2019-05-17T00:38:02.904Z,9.43
2019-05-17T00:39:02.903Z,9.58
2019-05-17T00:40:02.874Z,9.53
2019-05-17T00:41:02.863Z,9.56
2019-05-17T00:42:02.859Z,9.57
2019-05-17T00:43:02.922Z,9.52
2019-05-17T00:44:02.830Z,9.56
2019-05-17T00:45:02.853Z,9.57
2019-05-17T00:46:02.814Z,9.57
2019-05-17T00:47:02.801Z,9.56
2019-05-17T00:48:02.785Z,9.58
2019-05-17T00:49:02.777Z,9.60
2019-05-17T00:50:02.761Z,9.58
2019-05-17T00:51:02.864Z,9.56
2019-05-17T00:52:02.746Z,9.43
2019-05-17T00:53:02.843Z,9.52
2019-05-17T00:54:02.717Z,9.45
2019-05-17T00:55:02.717Z,9.46
2019-05-17T00:56:02.698Z,9.43
2019-05-17T00:57:02.686Z,9.40
2019-05-17T00:58:02.680Z,9.32
2019-05-17T00:59:02.745Z,9.40
2019-05-17T01:00:02.665Z,9.40
2019-05-17T01:01:02.650Z,9.38
2019-05-17T01:02:02.632Z,9.34
2019-05-17T01:03:02.615Z,9.34
2019-05-17T01:04:02.645Z,9.40
2019-05-17T01:05:02.593Z,9.32
2019-05-17T01:06:02.585Z,9.35
2019-05-17T01:07:02.573Z,9.39
2019-05-17T01:08:02.561Z,9.34
2019-05-17T01:09:04.158Z,9.32
2019-05-17T01:10:02.541Z,9.32
2019-05-17T01:11:02.529Z,9.34
2019-05-17T01:12:02.519Z,9.32
2019-05-17T01:13:02.585Z,9.34
2019-05-17T01:14:02.496Z,9.32
2019-05-17T01:15:02.497Z,9.39
2019-05-17T01:16:02.471Z,9.34
2019-05-17T01:17:02.461Z,9.32
2019-05-17T01:18:02.458Z,9.21
2019-05-17T01:19:02.446Z,9.06
2019-05-17T01:20:02.486Z,9.21
2019-05-17T01:21:02.430Z,9.09
2019-05-17T01:22:02.410Z,9.10
2019-05-17T01:23:02.392Z,8.99
2019-05-17T01:24:02.491Z,9.01
2019-05-17T01:25:02.375Z,8.97
2019-05-17T01:26:02.363Z,8.88
2019-05-17T01:27:02.353Z,8.81
2019-05-17T01:28:02.351Z,8.93
2019-05-17T01:29:02.329Z,8.91
2019-05-17T01:30:02.399Z,8.87
2019-05-17T01:31:02.308Z,8.86
2019-05-17T01:32:02.293Z,8.86
2019-05-17T01:33:02.285Z,8.87
2019-05-17T01:34:02.271Z,8.86
2019-05-17T01:35:02.306Z,8.90
2019-05-17T01:36:02.251Z,8.88
2019-05-17T01:37:02.242Z,8.90
2019-05-17T01:38:02.229Z,8.91
2019-05-17T01:39:14.316Z,8.90
2019-05-17T01:40:03.285Z,8.96
2019-05-17T01:41:02.199Z,9.02
2019-05-17T01:42:02.188Z,8.97
2019-05-17T01:43:02.191Z,8.75
2019-05-17T01:44:02.199Z,8.69
2019-05-17T01:45:02.149Z,8.72
2019-05-17T01:46:02.237Z,8.76
2019-05-17T01:47:02.131Z,8.76
2019-05-17T01:48:02.167Z,8.76
2019-05-17T01:49:02.104Z,8.86
2019-05-17T01:50:02.271Z,8.75
2019-05-17T01:51:02.088Z,8.84
2019-05-17T01:52:02.302Z,8.88
2019-05-17T01:53:02.060Z,8.84
2019-05-17T01:54:02.056Z,8.84
2019-05-17T01:55:02.043Z,8.90
2019-05-17T01:56:02.061Z,8.86
2019-05-17T01:57:02.025Z,8.75
2019-05-17T01:58:02.011Z,8.86
2019-05-17T01:59:01.998Z,8.90
2019-05-17T02:00:02.000Z,8.84
2019-05-17T02:01:01.977Z,8.87
2019-05-17T02:02:02.026Z,8.94
2019-05-17T02:03:01.979Z,8.87
2019-05-17T02:04:01.938Z,8.87
2019-05-17T02:05:01.941Z,8.79
2019-05-17T02:06:01.914Z,8.86
2019-05-17T02:07:01.985Z,8.87
2019-05-17T02:08:01.974Z,8.88
2019-05-17T02:09:01.880Z,8.84
2019-05-17T02:10:01.949Z,8.84
2019-05-17T02:11:01.868Z,8.84
2019-05-17T02:12:01.876Z,8.88
2019-05-17T02:13:02.459Z,8.83
2019-05-17T02:14:01.834Z,8.75
2019-05-17T02:15:01.831Z,8.81
2019-05-17T02:16:01.810Z,8.71
2019-05-17T02:17:01.804Z,8.76
2019-05-17T02:18:01.784Z,8.73
2019-05-17T02:19:01.878Z,8.75
2019-05-17T02:20:01.820Z,8.73
2019-05-17T02:21:01.749Z,8.78
2019-05-17T02:22:01.741Z,8.62
2019-05-17T02:23:01.736Z,8.65
2019-05-17T02:24:01.749Z,8.62
2019-05-17T02:25:01.955Z,8.63
2019-05-17T02:26:01.691Z,8.69
2019-05-17T02:27:01.689Z,8.62
2019-05-17T02:28:01.917Z,8.55
2019-05-17T02:29:01.665Z,8.53
2019-05-17T02:30:02.850Z,8.42
2019-05-17T02:31:03.428Z,8.55
2019-05-17T02:32:03.893Z,8.51
2019-05-17T02:33:03.762Z,8.57
2019-05-17T02:34:03.088Z,8.54
2019-05-17T02:35:03.352Z,8.53
2019-05-17T02:36:02.685Z,8.51
2019-05-17T02:37:02.946Z,8.58
2019-05-17T02:38:02.955Z,8.55
2019-05-17T02:39:03.595Z,8.51
2019-05-17T02:40:04.594Z,8.55
2019-05-17T02:41:03.474Z,8.65
2019-05-17T02:42:02.811Z,8.62
2019-05-17T02:43:03.078Z,8.65
2019-05-17T02:44:02.342Z,8.63
2019-05-17T02:45:02.990Z,8.57
2019-05-17T02:46:03.678Z,8.53
2019-05-17T02:47:03.249Z,8.53
2019-05-17T02:48:03.879Z,8.51
2019-05-17T02:49:03.138Z,8.57
2019-05-17T02:50:05.637Z,8.53
2019-05-17T02:51:03.427Z,8.55
2019-05-17T02:52:03.166Z,8.51
2019-05-17T02:53:04.304Z,8.57
2019-05-17T02:54:04.056Z,8.54
2019-05-17T02:55:04.002Z,8.53
2019-05-17T02:56:03.175Z,8.57
2019-05-17T02:57:03.072Z,8.54
2019-05-17T02:58:03.069Z,8.53
2019-05-17T02:59:03.614Z,8.48
2019-05-17T03:00:04.426Z,8.48
2019-05-17T03:01:03.558Z,8.44
2019-05-17T03:02:03.402Z,8.45
2019-05-17T03:03:03.424Z,8.51
2019-05-17T03:04:03.796Z,8.36
2019-05-17T03:05:03.970Z,8.32
2019-05-17T03:06:03.045Z,8.35
2019-05-17T03:07:03.827Z,8.44
2019-05-17T03:08:03.948Z,8.32
2019-05-17T03:09:03.396Z,8.35
2019-05-17T03:10:16.975Z,8.35
2019-05-17T03:11:03.321Z,8.35
2019-05-17T03:12:03.275Z,8.39
2019-05-17T03:13:04.117Z,8.39
2019-05-17T03:14:04.053Z,8.30
2019-05-17T03:15:04.087Z,8.30
2019-05-17T03:16:03.487Z,8.37
2019-05-17T03:17:03.308Z,8.33
2019-05-17T03:18:03.668Z,8.29
2019-05-17T03:19:04.091Z,8.29
2019-05-17T03:20:04.049Z,8.21
2019-05-17T03:21:03.854Z,8.28
2019-05-17T03:22:04.442Z,8.32
2019-05-17T03:23:03.859Z,8.29
2019-05-17T03:24:03.167Z,8.28
2019-05-17T03:25:03.443Z,8.30
2019-05-17T03:26:03.746Z,8.35
2019-05-17T03:27:02.998Z,8.39
2019-05-17T03:28:02.884Z,8.47
2019-05-17T03:29:03.439Z,8.39
2019-05-17T03:30:04.119Z,8.37
2019-05-17T03:31:06.874Z,8.42
2019-05-17T03:32:07.985Z,8.42
2019-05-17T03:33:07.483Z,8.42
2019-05-17T03:34:06.288Z,8.42
2019-05-17T03:35:06.960Z,8.45
2019-05-17T03:36:06.496Z,8.50
2019-05-17T03:37:06.089Z,8.45
2019-05-17T03:38:03.758Z,8.39
2019-05-17T03:39:03.101Z,8.42
2019-05-17T03:40:02.939Z,8.48
2019-05-17T03:41:14.067Z,8.47
2019-05-17T03:42:02.692Z,8.51
2019-05-17T03:43:02.795Z,8.55
2019-05-17T03:44:03.231Z,8.48
2019-05-17T03:45:02.903Z,8.45
2019-05-17T03:46:02.890Z,8.44
2019-05-17T03:47:02.387Z,8.48
2019-05-17T03:48:04.247Z,8.51
2019-05-17T03:49:03.480Z,8.50
2019-05-17T03:50:03.297Z,8.42
2019-05-17T03:51:02.675Z,8.53
2019-05-17T03:52:02.746Z,8.48
2019-05-17T03:53:02.378Z,8.53
2019-05-17T03:54:02.399Z,8.54
2019-05-17T03:55:03.957Z,8.57
2019-05-17T03:56:02.931Z,8.65
2019-05-17T03:57:02.889Z,8.68
2019-05-17T03:58:03.099Z,8.58
2019-05-17T03:59:03.778Z,8.60
2019-05-17T04:00:03.873Z,8.58
2019-05-17T04:01:03.732Z,8.62
2019-05-17T04:02:03.357Z,8.63
2019-05-17T04:03:03.009Z,8.62
2019-05-17T04:04:02.945Z,8.62
2019-05-17T04:05:03.941Z,8.62
2019-05-17T04:06:03.589Z,8.62
2019-05-17T04:07:03.331Z,8.75
2019-05-17T04:08:03.740Z,8.71
2019-05-17T04:09:03.800Z,8.76
2019-05-17T04:10:04.168Z,8.75
2019-05-17T04:11:17.581Z,8.72
2019-05-17T04:12:02.832Z,8.68
2019-05-17T04:13:03.707Z,8.87
2019-05-17T04:14:03.051Z,8.87
2019-05-17T04:15:08.505Z,8.87
2019-05-17T04:16:05.731Z,8.84
2019-05-17T04:17:03.042Z,8.83
2019-05-17T04:18:03.738Z,8.87
2019-05-17T04:19:03.199Z,8.88
2019-05-17T04:20:03.452Z,8.91
2019-05-17T04:21:03.239Z,8.96
2019-05-17T04:22:03.525Z,8.94
2019-05-17T04:23:03.407Z,8.97
2019-05-17T04:24:03.272Z,8.96
2019-05-17T04:25:02.966Z,9.02
2019-05-17T04:26:03.813Z,9.04
2019-05-17T04:27:03.396Z,9.06
2019-05-17T04:28:02.787Z,8.99
2019-05-17T04:29:03.300Z,9.01
2019-05-17T04:30:03.299Z,8.96
2019-05-17T04:31:02.790Z,9.09
2019-05-17T04:32:03.575Z,9.10
2019-05-17T04:33:03.251Z,9.09
2019-05-17T04:34:02.964Z,9.12
2019-05-17T04:35:03.493Z,9.16
2019-05-17T04:36:02.683Z,9.18
2019-05-17T04:37:00.244Z,9.23
2019-05-17T04:38:03.669Z,9.25
2019-05-17T04:39:02.501Z,9.25
2019-05-17T04:40:03.615Z,9.21
2019-05-17T04:41:03.313Z,9.18
2019-05-17T04:42:03.409Z,9.24
2019-05-17T04:43:02.967Z,9.18
2019-05-17T04:44:02.737Z,9.25
2019-05-17T04:45:03.340Z,9.23
2019-05-17T04:46:02.760Z,9.10
2019-05-17T04:47:03.146Z,9.25
2019-05-17T04:48:03.658Z,9.21
2019-05-17T04:49:02.792Z,9.27
2019-05-17T04:50:03.558Z,9.31
2019-05-17T04:51:02.604Z,9.30
2019-05-17T04:52:03.105Z,9.31
2019-05-17T04:53:02.678Z,9.30
2019-05-17T04:54:02.987Z,9.35
2019-05-17T04:55:03.693Z,9.31
2019-05-17T04:56:02.804Z,9.31
2019-05-17T04:57:02.705Z,9.32
2019-05-17T04:58:03.458Z,9.39
2019-05-17T04:59:02.970Z,9.43
2019-05-17T05:00:03.899Z,9.43
2019-05-17T05:01:03.651Z,9.46
2019-05-17T05:02:03.070Z,9.58
2019-05-17T05:03:03.432Z,9.53
2019-05-17T05:04:03.070Z,9.60
2019-05-17T05:05:03.132Z,9.71
2019-05-17T05:06:03.052Z,9.76
2019-05-17T05:07:02.901Z,9.78
2019-05-17T05:08:02.685Z,9.83
2019-05-17T05:09:02.621Z,9.91
2019-05-17T05:10:02.952Z,9.99
2019-05-17T05:10:59.880Z,9.96
2019-05-17T05:12:05.421Z,10.18
2019-05-17T05:13:03.156Z,10.17
2019-05-17T05:14:02.435Z,10.15
2019-05-17T05:15:02.696Z,10.24
2019-05-17T05:16:02.739Z,10.22
2019-05-17T05:17:02.389Z,10.32
2019-05-17T05:18:02.395Z,10.37
2019-05-17T05:19:02.643Z,10.21
2019-05-17T05:20:02.503Z,10.30
2019-05-17T05:20:59.758Z,10.28
2019-05-17T05:22:04.025Z,10.36
2019-05-17T05:23:02.569Z,10.34
2019-05-17T05:23:59.827Z,10.46
2019-05-17T05:25:01.972Z,10.36
2019-05-17T05:25:59.710Z,10.47
2019-05-17T05:26:59.688Z,10.42
2019-05-17T05:27:59.685Z,10.43
2019-05-17T05:29:02.203Z,10.47
2019-05-17T05:29:59.765Z,10.51
2019-05-17T05:31:01.937Z,10.55
2019-05-17T05:32:02.429Z,10.59
2019-05-17T05:33:01.856Z,10.73
2019-05-17T05:34:01.660Z,10.81
2019-05-17T05:34:59.607Z,10.94
2019-05-17T05:36:02.038Z,11.10
2019-05-17T05:37:01.930Z,11.27
2019-05-17T05:38:02.007Z,11.34
2019-05-17T05:38:59.555Z,11.41
2019-05-17T05:40:02.085Z,11.64
2019-05-17T05:41:01.595Z,11.70
2019-05-17T05:42:07.948Z,11.89
2019-05-17T05:43:02.367Z,11.90
2019-05-17T05:44:01.656Z,12.05
2019-05-17T05:44:59.492Z,12.06
2019-05-17T05:45:59.587Z,12.23
2019-05-17T05:46:59.468Z,12.33
2019-05-17T05:48:01.643Z,12.42
2019-05-17T05:49:01.566Z,12.44
2019-05-17T05:50:01.455Z,12.57
2019-05-17T05:51:02.579Z,12.59
2019-05-17T05:52:01.796Z,12.69
2019-05-17T05:53:01.789Z,12.81
2019-05-17T05:54:01.548Z,12.93
2019-05-17T05:55:01.435Z,13.12
2019-05-17T05:55:59.376Z,13.17
2019-05-17T05:57:02.093Z,13.21
2019-05-17T05:57:59.348Z,13.37
2019-05-17T05:58:59.339Z,13.43
2019-05-17T06:00:02.019Z,13.49
2019-05-17T06:01:02.053Z,13.58
2019-05-17T06:02:01.618Z,13.51
2019-05-17T06:02:59.349Z,13.69
2019-05-17T06:03:59.276Z,13.62
2019-05-17T06:05:01.743Z,13.67
2019-05-17T06:06:01.574Z,13.79
2019-05-17T06:06:59.310Z,13.94
2019-05-17T06:07:59.284Z,14.01
2019-05-17T06:08:59.226Z,14.16
2019-05-17T06:09:59.212Z,14.16
2019-05-17T06:11:01.940Z,14.35
2019-05-17T06:11:59.191Z,14.47
2019-05-17T06:12:59.239Z,14.57
2019-05-17T06:14:01.448Z,14.64
2019-05-17T06:14:59.296Z,14.61
2019-05-17T06:15:59.237Z,14.61
2019-05-17T06:16:59.158Z,14.72
2019-05-17T06:17:59.122Z,14.83
2019-05-17T06:18:59.112Z,14.88
2019-05-17T06:19:59.105Z,15.01
2019-05-17T06:20:59.189Z,15.13
2019-05-17T06:21:59.176Z,15.27
2019-05-17T06:22:59.225Z,15.38
2019-05-17T06:23:59.059Z,15.31
2019-05-17T06:24:59.090Z,15.46
2019-05-17T06:25:59.036Z,15.56
2019-05-17T06:26:59.099Z,15.57
2019-05-17T06:28:01.416Z,15.68
2019-05-17T06:28:59.013Z,15.79
2019-05-17T06:30:01.347Z,15.86
2019-05-17T06:30:58.985Z,15.89
2019-05-17T06:31:58.965Z,15.94
2019-05-17T06:32:58.952Z,16.00
2019-05-17T06:33:59.003Z,16.09
2019-05-17T06:34:58.936Z,16.23
2019-05-17T06:35:58.925Z,16.30
2019-05-17T06:36:58.920Z,16.35
2019-05-17T06:37:58.901Z,16.49
2019-05-17T06:38:58.969Z,16.63
2019-05-17T06:39:58.889Z,16.75
2019-05-17T06:40:58.870Z,16.86
2019-05-17T06:41:58.859Z,16.95
2019-05-17T06:42:58.849Z,16.99
2019-05-17T06:43:58.886Z,17.03
2019-05-17T06:44:58.830Z,17.22
2019-05-17T06:45:58.812Z,17.30
2019-05-17T06:46:58.810Z,17.46
2019-05-17T06:47:58.793Z,17.51
2019-05-17T06:48:58.789Z,17.51
2019-05-17T06:49:58.888Z,17.32
2019-05-17T06:50:58.755Z,17.28
2019-05-17T06:51:58.743Z,17.51
2019-05-17T06:52:58.738Z,17.63
2019-05-17T06:53:58.729Z,17.71
2019-05-17T06:54:58.713Z,17.84
2019-05-17T06:55:58.780Z,17.89
2019-05-17T06:56:58.692Z,17.85
2019-05-17T06:57:58.682Z,17.87
2019-05-17T06:58:58.664Z,17.74
2019-05-17T06:59:59.335Z,17.85
2019-05-17T07:00:59.948Z,17.74
2019-05-17T07:01:59.761Z,17.63
2019-05-17T07:03:00.533Z,17.73
2019-05-17T07:04:00.354Z,17.89
2019-05-17T07:04:58.605Z,18.09
2019-05-17T07:05:59.635Z,18.27
2019-05-17T07:07:00.112Z,18.33
2019-05-17T07:08:00.315Z,18.36
2019-05-17T07:09:00.843Z,18.62
2019-05-17T07:10:00.507Z,18.73
2019-05-17T07:10:59.720Z,18.76
2019-05-17T07:11:59.612Z,18.74
2019-05-17T07:13:01.434Z,18.82
2019-05-17T07:13:59.760Z,18.74
2019-05-17T07:15:00.936Z,18.87
2019-05-17T07:15:59.715Z,18.91
2019-05-17T07:16:59.589Z,18.82
2019-05-17T07:17:59.939Z,18.90
2019-05-17T07:18:59.747Z,18.86
2019-05-17T07:19:59.685Z,18.87
2019-05-17T07:21:02.701Z,18.92
2019-05-17T07:21:59.996Z,19.06
2019-05-17T07:23:00.358Z,19.08
2019-05-17T07:23:59.424Z,19.23
2019-05-17T07:24:59.794Z,19.13
2019-05-17T07:25:59.655Z,19.18
2019-05-17T07:26:59.198Z,19.28
2019-05-17T07:28:00.473Z,19.33
2019-05-17T07:28:59.292Z,19.40
2019-05-17T07:29:59.263Z,19.42
2019-05-17T07:30:59.727Z,19.54
2019-05-17T07:32:00.355Z,19.63
2019-05-17T07:33:00.363Z,19.76
2019-05-17T07:33:59.843Z,19.95
2019-05-17T07:35:00.093Z,20.02
2019-05-17T07:35:59.509Z,20.06
2019-05-17T07:36:59.727Z,20.15
2019-05-17T07:37:59.545Z,20.34
2019-05-17T07:39:00.623Z,20.43
2019-05-17T07:40:04.528Z,20.35
2019-05-17T07:40:59.658Z,20.39
2019-05-17T07:42:00.000Z,20.42
2019-05-17T07:43:09.750Z,20.54
2019-05-17T07:44:00.443Z,20.65
2019-05-17T07:45:00.314Z,20.62
2019-05-17T07:46:00.307Z,20.68
2019-05-17T07:47:00.096Z,20.74
2019-05-17T07:48:00.101Z,20.66
2019-05-17T07:49:00.378Z,20.64
2019-05-17T07:50:00.724Z,20.54
2019-05-17T07:50:59.355Z,20.59
2019-05-17T07:51:58.092Z,20.58
2019-05-17T07:53:00.498Z,20.50
2019-05-17T07:53:59.710Z,20.69
2019-05-17T07:55:02.407Z,20.64
2019-05-17T07:55:59.704Z,20.47
2019-05-17T07:57:00.281Z,20.42
2019-05-17T07:58:00.113Z,20.43
2019-05-17T07:58:59.924Z,20.58
2019-05-17T07:59:59.941Z,20.65
2019-05-17T08:00:57.987Z,20.74
2019-05-17T08:01:59.718Z,20.93
2019-05-17T08:02:59.984Z,21.02
2019-05-17T08:04:00.393Z,21.08
2019-05-17T08:05:00.245Z,21.24
2019-05-17T08:06:00.069Z,21.17
2019-05-17T08:06:59.813Z,21.24
2019-05-17T08:08:00.013Z,21.32
2019-05-17T08:09:01.274Z,21.13
2019-05-17T08:10:00.204Z,21.08
2019-05-17T08:11:00.443Z,21.13
2019-05-17T08:11:59.711Z,21.14
2019-05-17T08:12:59.937Z,21.27
2019-05-17T08:13:59.748Z,21.38
2019-05-17T08:14:59.823Z,21.35
2019-05-17T08:15:59.530Z,21.30
2019-05-17T08:16:59.903Z,21.59
2019-05-17T08:17:59.396Z,21.83
2019-05-17T08:19:00.166Z,21.92
2019-05-17T08:20:00.314Z,22.07
2019-05-17T08:20:59.697Z,22.07
2019-05-17T08:21:59.710Z,22.01
2019-05-17T08:22:59.552Z,21.97
2019-05-17T08:23:59.883Z,22.12
2019-05-17T08:24:59.843Z,22.12
2019-05-17T08:26:00.450Z,22.16
2019-05-17T08:26:59.616Z,22.43
2019-05-17T08:27:59.486Z,22.53
2019-05-17T08:28:57.682Z,22.59
2019-05-17T08:29:59.736Z,22.67
2019-05-17T08:30:57.742Z,22.67
2019-05-17T08:31:57.653Z,22.75
2019-05-17T08:32:57.649Z,22.87
2019-05-17T08:33:59.888Z,22.92
2019-05-17T08:35:00.139Z,22.92
2019-05-17T08:35:59.637Z,23.01
2019-05-17T08:36:57.676Z,23.02
2019-05-17T08:38:00.331Z,23.05
2019-05-17T08:38:59.543Z,23.14
2019-05-17T08:39:59.866Z,23.29
2019-05-17T08:41:00.353Z,23.34
2019-05-17T08:41:57.546Z,23.53
2019-05-17T08:43:00.003Z,23.57
2019-05-17T08:43:57.519Z,23.39
2019-05-17T08:44:57.513Z,23.20
2019-05-17T08:45:59.338Z,23.35
2019-05-17T08:46:59.387Z,23.58
2019-05-17T08:47:57.556Z,23.76
2019-05-17T08:48:57.468Z,23.92
2019-05-17T08:50:00.207Z,23.97
2019-05-17T08:50:59.954Z,24.07
2019-05-17T08:51:59.402Z,23.79
2019-05-17T08:52:59.820Z,23.11
2019-05-17T08:53:59.849Z,22.90
2019-05-17T08:54:57.482Z,23.11
2019-05-17T08:55:57.396Z,23.31
2019-05-17T08:56:57.424Z,23.49
2019-05-17T08:57:57.368Z,23.67
2019-05-17T08:58:57.362Z,23.89
2019-05-17T08:59:57.428Z,24.27
2019-05-17T09:01:00.015Z,24.54
2019-05-17T09:01:59.935Z,24.67
2019-05-17T09:02:59.942Z,24.53
2019-05-17T09:03:59.667Z,24.49
2019-05-17T09:04:57.293Z,24.26
2019-05-17T09:06:01.489Z,24.23
2019-05-17T09:07:00.043Z,24.27
2019-05-17T09:07:57.344Z,24.32
2019-05-17T09:08:57.261Z,24.38
2019-05-17T09:09:57.248Z,24.27
2019-05-17T09:10:57.237Z,24.39
2019-05-17T09:11:59.506Z,24.59
2019-05-17T09:12:59.547Z,24.59
2019-05-17T09:14:01.076Z,24.08
2019-05-17T09:14:57.189Z,23.94
2019-05-17T09:15:57.184Z,24.08
2019-05-17T09:17:00.226Z,24.04
2019-05-17T09:17:57.268Z,24.14
2019-05-17T09:18:57.147Z,24.10
2019-05-17T09:19:57.144Z,24.23
2019-05-17T09:20:57.128Z,24.22
2019-05-17T09:21:59.679Z,24.37
2019-05-17T09:22:57.105Z,24.68
2019-05-17T09:23:59.565Z,25.07
2019-05-17T09:24:59.460Z,25.27
2019-05-17T09:25:59.361Z,25.50
2019-05-17T09:26:57.075Z,25.64
2019-05-17T09:27:57.057Z,24.69
2019-05-17T09:28:57.129Z,24.39
2019-05-17T09:29:57.042Z,23.04
2019-05-17T09:30:57.036Z,22.67
2019-05-17T09:31:57.017Z,22.92
2019-05-17T09:32:57.103Z,23.20
2019-05-17T09:33:57.107Z,22.77
2019-05-17T09:34:56.994Z,22.96
2019-05-17T09:35:56.977Z,23.46
2019-05-17T09:36:56.973Z,23.86
2019-05-17T09:37:56.963Z,24.52
2019-05-17T09:38:56.946Z,24.67
2019-05-17T09:39:57.019Z,24.92
2019-05-17T09:40:56.932Z,24.39
2019-05-17T09:41:56.926Z,24.42
2019-05-17T09:42:56.907Z,23.94
2019-05-17T09:44:09.632Z,23.68
2019-05-17T09:45:00.171Z,23.08
2019-05-17T09:45:56.883Z,22.47
2019-05-17T09:46:59.350Z,22.92
2019-05-17T09:47:56.865Z,23.38
2019-05-17T09:48:56.847Z,24.01
2019-05-17T09:49:56.866Z,24.37
2019-05-17T09:50:56.830Z,24.75
2019-05-17T09:51:56.824Z,25.01
2019-05-17T09:52:56.803Z,25.16
2019-05-17T09:53:56.794Z,25.64
2019-05-17T09:54:56.867Z,25.94
2019-05-17T09:55:56.780Z,26.22
2019-05-17T09:56:56.848Z,26.17
2019-05-17T09:57:56.854Z,26.12
2019-05-17T09:58:56.749Z,26.32
2019-05-17T09:59:56.739Z,26.57
2019-05-17T10:00:56.738Z,26.42
2019-05-17T10:01:56.720Z,25.24
2019-05-17T10:02:56.714Z,25.30
2019-05-17T10:03:56.780Z,25.68
2019-05-17T10:04:56.684Z,25.37
2019-05-17T10:05:56.686Z,25.59
2019-05-17T10:06:56.748Z,25.84
2019-05-17T10:07:56.659Z,26.09
2019-05-17T10:08:56.650Z,26.43
2019-05-17T10:09:56.664Z,26.86
2019-05-17T10:11:08.106Z,27.54
2019-05-17T10:11:59.894Z,28.07
2019-05-17T10:12:56.611Z,28.36
2019-05-17T10:13:58.947Z,28.91
2019-05-17T10:15:04.661Z,29.19
2019-05-17T10:15:56.582Z,29.43
2019-05-17T10:16:56.652Z,29.79
2019-05-17T10:17:56.686Z,29.96
2019-05-17T10:18:56.548Z,29.92
2019-05-17T10:19:56.544Z,29.10
2019-05-17T10:20:56.531Z,29.19
2019-05-17T10:21:56.602Z,29.59
2019-05-17T10:22:56.511Z,29.38
2019-05-17T10:23:56.510Z,27.39
2019-05-17T10:24:56.497Z,26.35
2019-05-17T10:25:56.481Z,25.46
2019-05-17T10:26:56.553Z,25.06
2019-05-17T10:27:56.470Z,24.71
2019-05-17T10:28:56.560Z,24.47
2019-05-17T10:29:56.441Z,24.76
2019-05-17T10:30:56.442Z,25.22
2019-05-17T10:31:56.419Z,25.57
2019-05-17T10:32:56.455Z,25.02
2019-05-17T10:33:58.326Z,25.37
2019-05-17T10:34:56.489Z,24.75
2019-05-17T10:35:56.387Z,24.07
2019-05-17T10:36:56.373Z,23.55
2019-05-17T10:37:56.364Z,22.82
2019-05-17T10:38:56.353Z,22.41
2019-05-17T10:39:56.345Z,22.17
2019-05-17T10:40:56.410Z,21.61
2019-05-17T10:41:56.324Z,21.09
2019-05-17T10:42:56.317Z,20.96
2019-05-17T10:43:56.302Z,20.51
2019-05-17T10:44:56.369Z,20.46
2019-05-17T10:45:56.283Z,20.28
2019-05-17T10:46:56.264Z,20.18
2019-05-17T10:47:56.337Z,20.24
2019-05-17T10:48:56.249Z,20.41
2019-05-17T10:49:56.268Z,20.33
2019-05-17T10:50:56.304Z,20.38
2019-05-17T10:51:56.212Z,20.43
2019-05-17T10:52:56.281Z,20.15
2019-05-17T10:53:56.198Z,20.06
2019-05-17T10:54:56.260Z,20.18
2019-05-17T10:55:56.250Z,19.93
2019-05-17T10:56:56.175Z,19.60
2019-05-17T10:57:56.149Z,19.31
2019-05-17T10:58:56.144Z,19.51
2019-05-17T10:59:56.237Z,19.21
2019-05-17T11:00:56.195Z,19.05
2019-05-17T11:01:56.131Z,18.87
2019-05-17T11:02:56.091Z,18.76
2019-05-17T11:03:56.083Z,18.84
2019-05-17T11:04:56.077Z,18.92
2019-05-17T11:05:56.094Z,19.05
2019-05-17T11:06:56.102Z,19.20
2019-05-17T11:07:56.037Z,19.31
2019-05-17T11:08:56.030Z,19.39
2019-05-17T11:09:56.123Z,19.57
2019-05-17T11:10:56.005Z,19.72
2019-05-17T11:11:55.995Z,19.83
2019-05-17T11:12:55.988Z,19.76
2019-05-17T11:13:55.977Z,19.94
2019-05-17T11:15:10.410Z,19.78
2019-05-17T11:15:56.955Z,19.87
2019-05-17T11:16:55.995Z,19.88
2019-05-17T11:17:55.931Z,20.09
2019-05-17T11:18:55.919Z,20.10
2019-05-17T11:19:55.911Z,20.23
2019-05-17T11:20:55.904Z,20.35
2019-05-17T11:21:55.997Z,20.38
2019-05-17T11:22:55.882Z,20.47
2019-05-17T11:23:55.869Z,20.49
2019-05-17T11:24:55.906Z,20.61
2019-05-17T11:25:55.956Z,20.42
2019-05-17T11:26:55.850Z,20.49
2019-05-17T11:27:55.822Z,20.46
2019-05-17T11:28:55.823Z,20.31
2019-05-17T11:29:55.798Z,20.09
2019-05-17T11:30:55.793Z,19.94
2019-05-17T11:31:55.860Z,19.94
2019-05-17T11:32:55.773Z,20.00
2019-05-17T11:33:55.760Z,20.10
2019-05-17T11:34:55.746Z,20.20
2019-05-17T11:35:55.816Z,20.21
2019-05-17T11:36:55.736Z,20.31
2019-05-17T11:37:55.722Z,20.31
2019-05-17T11:38:55.783Z,20.38
2019-05-17T11:39:55.695Z,20.43
2019-05-17T11:40:55.687Z,20.46
2019-05-17T11:41:55.673Z,20.56
2019-05-17T11:42:55.659Z,20.66
2019-05-17T11:43:55.647Z,20.77
2019-05-17T11:44:55.720Z,20.91
2019-05-17T11:45:55.625Z,20.81
2019-05-17T11:46:55.620Z,20.81
2019-05-17T11:47:55.601Z,20.68
2019-05-17T11:48:55.672Z,20.65
2019-05-17T11:49:55.603Z,20.64
2019-05-17T11:50:55.569Z,20.69
2019-05-17T11:51:55.561Z,20.64
2019-05-17T11:52:55.558Z,20.76
2019-05-17T11:53:55.565Z,20.90
2019-05-17T11:54:55.526Z,21.01
2019-05-17T11:55:55.513Z,20.87
2019-05-17T11:56:55.509Z,20.66
2019-05-17T11:57:55.497Z,20.64
2019-05-17T11:58:55.561Z,20.39
2019-05-17T11:59:55.469Z,20.42
2019-05-17T12:00:55.467Z,20.24
2019-05-17T12:01:55.648Z,19.90
2019-05-17T12:02:55.440Z,19.51
2019-05-17T12:03:55.431Z,19.24
2019-05-17T12:04:55.417Z,18.97
2019-05-17T12:05:55.422Z,18.97
2019-05-17T12:06:55.391Z,18.84
2019-05-17T12:07:55.491Z,18.90
2019-05-17T12:08:55.377Z,19.08
2019-05-17T12:09:55.368Z,19.28
2019-05-17T12:10:55.414Z,19.33
2019-05-17T12:11:55.365Z,19.39
2019-05-17T12:12:55.325Z,19.57
2019-05-17T12:13:55.321Z,19.69
2019-05-17T12:14:55.386Z,19.91
2019-05-17T12:15:55.294Z,20.08
2019-05-17T12:16:55.289Z,20.16
2019-05-17T12:17:55.354Z,20.42
2019-05-17T12:18:55.268Z,20.64
2019-05-17T12:19:55.252Z,20.89
2019-05-17T12:20:55.331Z,21.13
2019-05-17T12:21:55.234Z,21.20
2019-05-17T12:22:55.224Z,21.09
2019-05-17T12:23:55.225Z,20.79
2019-05-17T12:24:55.200Z,20.58
2019-05-17T12:25:56.129Z,20.46
2019-05-17T12:26:55.172Z,20.46
2019-05-17T12:27:55.165Z,20.72
2019-05-17T12:28:55.154Z,20.77
2019-05-17T12:29:55.141Z,20.83
2019-05-17T12:30:55.169Z,20.95
2019-05-17T12:31:55.155Z,21.02
2019-05-17T12:32:55.113Z,21.06
2019-05-17T12:33:55.104Z,21.08
2019-05-17T12:34:55.091Z,20.99
2019-05-17T12:35:55.077Z,20.65
2019-05-17T12:36:55.150Z,20.58
2019-05-17T12:37:55.061Z,20.42
2019-05-17T12:38:55.125Z,20.43
2019-05-17T12:39:55.068Z,20.51
2019-05-17T12:40:55.025Z,20.77
2019-05-17T12:41:55.072Z,20.68
2019-05-17T12:42:55.004Z,20.83
2019-05-17T12:43:55.012Z,20.86
2019-05-17T12:44:54.984Z,20.86
2019-05-17T12:46:00.870Z,20.98
2019-05-17T12:46:55.960Z,20.86
2019-05-17T12:47:55.029Z,20.62
2019-05-17T12:48:54.935Z,20.58
2019-05-17T12:49:54.927Z,20.42
2019-05-17T12:50:55.001Z,20.23
2019-05-17T12:51:54.910Z,20.00
2019-05-17T12:52:54.896Z,19.79
2019-05-17T12:53:54.888Z,19.80
2019-05-17T12:54:54.950Z,19.48
2019-05-17T12:55:54.862Z,19.31
2019-05-17T12:56:55.013Z,19.38
2019-05-17T12:57:54.837Z,19.54
2019-05-17T12:58:54.936Z,19.46
2019-05-17T12:59:54.822Z,19.33
2019-05-17T13:00:54.816Z,19.24
2019-05-17T13:01:54.874Z,19.35